Snyder, CO (80750)

4:27 AM MST on December 27, 2014 (GMT -0700)
Ray Addition | Change Station
CLOSE
Current Station
Personal Weather Station
Location: Brush, CO
Elevation: 4249 ft
Nearby Weather Stations

Elev 4249 ft 40.26 °N, 103.63 °W | Updated 38 seconds ago

Partly Cloudy
Partly Cloudy
2.9 °F
Feels Like 3 °F
N
0.0
Wind Variable Wind from SSW
Gusts 0.0 mph

Today
High -- | Low -- °F
--% Chance of Precip.
Yesterday
High -- | Low -- °F
Precip. -- in
7:16 AM 4:34 PM
Waxing Crescent, 35% visible
Pressure 30.13 in
Visibility 10.0 miles
Clouds Clear
Windchill 3 °F
Dew Point 0 °F
Humidity 88%
Rainfall 0.00 in
Snow Depth Not available.
UV 0 out of 12
Pollen .10 out of 12
Air Quality Not available.
Flu Activity Not available.
METAR KFMM 271115Z AUTO 26008KT 10SM CLR M17/M18 A3013 RMK AO2 T11661184

More Conditions Fewer Conditions

Pressure 30.13 in
Visibility 10.0 miles
Clouds Clear
Windchill 3 °F
Dew Point 0 °F
Humidity 88%
Rainfall 0.00 in
Snow Depth Not available.
UV 0 out of 12
Pollen .10 out of 12
Air Quality Not available.
Flu Activity Not available.
METAR KFMM 271115Z AUTO 26008KT 10SM CLR M17/M18 A3013 RMK AO2 T11661184

More Conditions Fewer Conditions

10-Day Weather Forecast

Almanac

Astronomy

Dec. 27, 2014 Rise Set
Actual Time
Civil Twilight
Nautical Twilight
Astronomical Twilight
Moon
Length of Visible Light
Length of Day
Tomorrow will be .
, % of the Moon is Illuminated

Today's Extremes

State Highs State Lows

Community

WunderPhotos

Upload Photos

1,780,881 photos uploaded!

WunderBlogs® & News

Nearby

Air Quality

  Air Quality AQ Index Pollutant
Not available.

Snow Depth

Station Depth Elevation

Earthquake Activity

City Distance Mag. Time & Date
Minimum magnitude displayed is 2.5.

Coastal Water Temperatures

Place Temperature

Nearby Weather Stations